createdAt,value
2018-01-27T00:00:18.964Z,16.40
2018-01-27T00:02:45.220Z,16.03
2018-01-27T00:05:12.624Z,16.93
2018-01-27T00:07:40.006Z,16.13
2018-01-27T00:10:06.245Z,15.17
2018-01-27T00:12:32.480Z,16.37
2018-01-27T00:14:58.891Z,16.80
2018-01-27T00:17:25.109Z,17.30
2018-01-27T00:19:51.403Z,16.47
2018-01-27T00:22:17.692Z,16.73
2018-01-27T00:24:44.839Z,14.33
2018-01-27T00:27:11.762Z,15.60
2018-01-27T00:29:38.908Z,17.33
2018-01-27T00:32:05.412Z,14.53
2018-01-27T00:34:31.625Z,17.67
2018-01-27T00:36:58.670Z,15.17
2018-01-27T00:39:24.876Z,16.13
2018-01-27T00:41:51.241Z,15.10
2018-01-27T00:44:17.464Z,13.90
2018-01-27T00:46:43.686Z,14.17
2018-01-27T00:49:10.078Z,16.70
2018-01-27T00:51:36.309Z,15.20
2018-01-27T00:54:02.549Z,16.13
2018-01-27T00:56:28.840Z,15.57
2018-01-27T00:58:55.059Z,14.80
2018-01-27T01:01:21.311Z,14.50
2018-01-27T01:03:48.527Z,16.47
2018-01-27T01:06:14.779Z,15.57
2018-01-27T01:08:41.007Z,14.70
2018-01-27T01:11:07.924Z,16.10
2018-01-27T01:13:35.177Z,15.27
2018-01-27T01:16:01.432Z,16.27
2018-01-27T01:18:28.337Z,16.57
2018-01-27T01:20:54.829Z,16.57
2018-01-27T01:23:21.944Z,15.67
2018-01-27T01:25:48.179Z,15.97
2018-01-27T01:28:14.415Z,16.17
2018-01-27T01:30:40.860Z,15.60
2018-01-27T01:33:07.060Z,15.73
2018-01-27T01:35:34.052Z,14.53
2018-01-27T01:38:00.532Z,16.37
2018-01-27T01:40:26.767Z,15.80
2018-01-27T01:42:58.945Z,17.90
2018-01-27T01:45:25.315Z,16.97
2018-01-27T01:47:51.604Z,15.43
2018-01-27T01:50:17.844Z,15.23
2018-01-27T01:52:44.188Z,15.43
2018-01-27T01:55:10.460Z,15.23
2018-01-27T01:57:36.665Z,17.53
2018-01-27T02:00:02.968Z,15.37
2018-01-27T02:02:29.294Z,16.73
2018-01-27T02:04:55.516Z,16.40
2018-01-27T02:07:22.762Z,15.80
2018-01-27T02:09:49.011Z,17.97
2018-01-27T02:12:15.190Z,15.60
2018-01-27T02:14:41.393Z,16.17
2018-01-27T02:17:07.638Z,16.23
2018-01-27T02:19:33.865Z,16.20
2018-01-27T02:22:00.127Z,16.80
2018-01-27T02:24:26.482Z,16.07
2018-01-27T02:26:52.704Z,16.10
2018-01-27T02:29:18.952Z,15.50
2018-01-27T02:31:45.750Z,15.33
2018-01-27T02:34:12.156Z,17.00
2018-01-27T02:36:38.376Z,16.93
2018-01-27T02:39:04.817Z,16.10
2018-01-27T02:41:31.065Z,17.53
2018-01-27T02:43:57.322Z,15.03
2018-01-27T02:46:24.538Z,15.60
2018-01-27T02:48:50.883Z,15.20
2018-01-27T02:51:17.117Z,14.90
2018-01-27T02:53:43.345Z,16.00
2018-01-27T02:56:09.752Z,15.90
2018-01-27T02:58:35.987Z,14.90
2018-01-27T03:01:02.239Z,15.83
2018-01-27T03:03:28.575Z,14.57
2018-01-27T03:05:54.764Z,14.90
2018-01-27T03:08:21.064Z,17.47
2018-01-27T03:10:47.536Z,16.43
2018-01-27T03:13:13.726Z,18.63
2018-01-27T03:15:39.966Z,20.60
2018-01-27T03:18:06.284Z,20.67
2018-01-27T03:20:33.300Z,21.87
2018-01-27T03:22:59.519Z,23.97
2018-01-27T03:25:26.379Z,23.60
2018-01-27T03:27:52.607Z,22.70
2018-01-27T03:30:18.820Z,20.20
2018-01-27T03:32:45.819Z,21.53
2018-01-27T03:35:12.200Z,22.13
2018-01-27T03:37:38.410Z,18.50
2018-01-27T03:40:04.625Z,24.00
2018-01-27T03:42:31.037Z,19.40
2018-01-27T03:44:57.294Z,20.30
2018-01-27T03:47:24.279Z,18.00
2018-01-27T03:49:50.463Z,20.70
2018-01-27T03:52:16.676Z,17.87
2018-01-27T03:54:42.913Z,18.20
2018-01-27T03:57:09.192Z,20.70
2018-01-27T03:59:35.413Z,19.97
2018-01-27T04:02:01.679Z,20.03
2018-01-27T04:04:27.934Z,18.90
2018-01-27T04:06:55.081Z,18.30
2018-01-27T04:09:21.344Z,19.60
2018-01-27T04:11:47.596Z,18.10
2018-01-27T04:14:14.674Z,20.33
2018-01-27T04:16:40.924Z,17.90
2018-01-27T04:19:07.136Z,17.23
2018-01-27T04:21:34.424Z,16.93
2018-01-27T04:24:00.792Z,16.80
2018-01-27T04:26:27.016Z,16.07
2018-01-27T04:28:53.240Z,15.80
2018-01-27T04:31:19.760Z,16.07
2018-01-27T04:33:45.995Z,15.87
2018-01-27T04:36:12.193Z,16.00
2018-01-27T04:38:38.519Z,15.90
2018-01-27T04:41:04.766Z,16.17
2018-01-27T04:43:30.975Z,16.80
2018-01-27T04:45:57.332Z,15.27
2018-01-27T04:48:23.538Z,16.17
2018-01-27T04:50:49.725Z,15.13
2018-01-27T04:53:16.115Z,14.93
2018-01-27T04:55:43.106Z,16.13
2018-01-27T04:58:09.305Z,14.47
2018-01-27T05:00:35.659Z,14.70
2018-01-27T05:03:01.851Z,14.80
2018-01-27T05:05:28.099Z,17.17
2018-01-27T05:07:54.333Z,16.67
2018-01-27T05:10:20.550Z,20.90
2018-01-27T05:12:47.559Z,17.80
2018-01-27T05:15:13.780Z,16.30
2018-01-27T05:17:40.156Z,15.40
2018-01-27T05:20:06.385Z,15.00
2018-01-27T05:22:32.576Z,15.70
2018-01-27T05:24:59.112Z,17.57
2018-01-27T05:27:25.367Z,16.80
2018-01-27T05:29:51.767Z,14.00
2018-01-27T05:32:18.284Z,13.67
2018-01-27T05:34:44.533Z,13.50
2018-01-27T05:37:10.804Z,13.40
2018-01-27T05:39:37.453Z,13.13
2018-01-27T05:42:03.679Z,17.00
2018-01-27T05:44:29.917Z,18.00
2018-01-27T05:46:56.223Z,16.77
2018-01-27T05:49:23.336Z,16.77
2018-01-27T05:51:49.562Z,15.77
2018-01-27T05:54:15.802Z,15.83
2018-01-27T05:56:42.189Z,16.47
2018-01-27T05:59:08.416Z,16.67
2018-01-27T06:01:34.632Z,17.60
2018-01-27T06:04:01.028Z,18.80
2018-01-27T06:06:27.281Z,17.10
2018-01-27T06:08:54.230Z,16.80
2018-01-27T06:11:21.418Z,18.80
2018-01-27T06:13:47.773Z,21.53
2018-01-27T06:16:14.001Z,20.17
2018-01-27T06:18:40.200Z,17.80
2018-01-27T06:21:06.788Z,20.20
2018-01-27T06:23:33.009Z,16.83
2018-01-27T06:25:59.190Z,18.00
2018-01-27T06:28:28.438Z,18.07
2018-01-27T06:30:57.005Z,18.97
2018-01-27T06:33:24.083Z,18.90
2018-01-27T06:35:50.363Z,16.90
2018-01-27T06:38:17.328Z,19.70
2018-01-27T06:40:44.247Z,18.77
2018-01-27T06:43:10.560Z,21.17
2018-01-27T06:45:36.944Z,18.67
2018-01-27T06:48:03.196Z,19.50
2018-01-27T06:50:29.444Z,21.03
2018-01-27T06:52:55.690Z,22.07
2018-01-27T06:55:22.637Z,18.83
2018-01-27T06:57:48.888Z,23.13
2018-01-27T07:00:15.849Z,17.50
2018-01-27T07:02:42.960Z,17.10
2018-01-27T07:05:11.304Z,17.50
2018-01-27T07:07:38.282Z,17.20
2018-01-27T07:10:04.485Z,19.97
2018-01-27T07:12:30.858Z,18.07
2018-01-27T07:14:57.053Z,18.20
2018-01-27T07:17:23.494Z,19.53
2018-01-27T07:19:49.784Z,15.90
2018-01-27T07:22:16.014Z,20.00
2018-01-27T07:24:42.950Z,23.43
2018-01-27T07:27:09.291Z,22.17
2018-01-27T07:29:35.561Z,21.10
2018-01-27T07:32:01.775Z,18.30
2018-01-27T07:34:28.241Z,17.57
2018-01-27T07:36:54.488Z,17.97
2018-01-27T07:39:20.798Z,19.93
2018-01-27T07:41:47.044Z,15.00
2018-01-27T07:44:13.296Z,15.40
2018-01-27T07:46:39.547Z,15.10
2018-01-27T07:49:05.748Z,17.17
2018-01-27T07:51:31.958Z,16.20
2018-01-27T07:53:58.213Z,16.80
2018-01-27T07:56:24.461Z,20.13
2018-01-27T07:58:50.796Z,18.30
2018-01-27T08:01:17.066Z,18.80
2018-01-27T08:03:43.300Z,20.43
2018-01-27T08:06:09.693Z,19.03
2018-01-27T08:08:36.322Z,17.63
2018-01-27T08:11:02.617Z,19.73
2018-01-27T08:13:29.822Z,20.50
2018-01-27T08:15:56.242Z,23.23
2018-01-27T08:18:23.285Z,20.33
2018-01-27T08:20:49.657Z,19.80
2018-01-27T08:23:16.020Z,22.33
2018-01-27T08:25:42.251Z,18.50
2018-01-27T08:28:08.561Z,19.70
2018-01-27T08:30:35.405Z,20.33
2018-01-27T08:33:01.654Z,19.87
2018-01-27T08:35:28.003Z,22.87
2018-01-27T08:37:54.417Z,22.43
2018-01-27T08:40:20.655Z,21.50
2018-01-27T08:42:47.754Z,20.20
2018-01-27T08:45:13.996Z,21.97
2018-01-27T08:47:40.305Z,21.93
2018-01-27T08:50:07.307Z,20.40
2018-01-27T08:52:33.532Z,22.00
2018-01-27T08:55:00.553Z,21.20
2018-01-27T08:57:26.792Z,23.23
2018-01-27T08:59:53.048Z,22.20
2018-01-27T09:02:19.459Z,22.03
2018-01-27T09:04:45.672Z,22.77
2018-01-27T09:07:11.865Z,24.50
2018-01-27T09:09:38.072Z,23.33
2018-01-27T09:12:04.280Z,26.97
2018-01-27T09:14:30.506Z,26.20
2018-01-27T09:16:56.736Z,24.73
2018-01-27T09:19:24.616Z,29.50
2018-01-27T09:21:50.848Z,27.27
2018-01-27T09:24:17.075Z,25.97
2018-01-27T09:26:43.453Z,28.73
2018-01-27T09:29:09.656Z,27.67
2018-01-27T09:31:35.839Z,28.70
2018-01-27T09:34:02.225Z,25.30
2018-01-27T09:36:28.413Z,24.57
2018-01-27T09:38:55.402Z,25.90
2018-01-27T09:41:21.597Z,26.70
2018-01-27T09:43:48.699Z,28.97
2018-01-27T09:46:14.912Z,28.67
2018-01-27T09:48:41.132Z,26.27
2018-01-27T09:51:07.425Z,26.37
2018-01-27T09:53:33.717Z,24.50
2018-01-27T09:55:59.960Z,22.90
2018-01-27T09:58:27.011Z,22.53
2018-01-27T10:00:53.228Z,23.13
2018-01-27T10:03:19.440Z,25.83
2018-01-27T10:05:45.743Z,31.87
2018-01-27T10:08:12.924Z,27.97
2018-01-27T10:10:39.934Z,30.37
2018-01-27T10:13:06.279Z,34.53
2018-01-27T10:15:32.676Z,30.27
2018-01-27T10:17:59.752Z,31.17
2018-01-27T10:20:26.062Z,34.67
2018-01-27T10:22:53.336Z,29.77
2018-01-27T10:25:20.389Z,36.47
2018-01-27T10:27:47.438Z,27.77
2018-01-27T10:30:13.719Z,30.07
2018-01-27T10:32:39.940Z,34.83
2018-01-27T10:35:06.347Z,31.70
2018-01-27T10:37:32.700Z,34.77
2018-01-27T10:39:58.955Z,30.87
2018-01-27T10:42:25.369Z,31.17
2018-01-27T10:44:51.642Z,29.40
2018-01-27T10:47:18.633Z,29.30
2018-01-27T10:49:44.850Z,29.00
2018-01-27T10:52:12.908Z,31.10
2018-01-27T10:54:39.138Z,31.80
2018-01-27T10:57:05.358Z,32.40
2018-01-27T10:59:31.561Z,27.33
2018-01-27T11:01:57.752Z,26.83
2018-01-27T11:04:23.937Z,28.63
2018-01-27T11:06:50.253Z,27.77
2018-01-27T11:09:16.486Z,29.67
2018-01-27T11:11:42.719Z,28.33
2018-01-27T11:14:08.951Z,27.20
2018-01-27T11:16:36.213Z,27.70
2018-01-27T11:19:02.396Z,28.83
2018-01-27T11:21:28.609Z,25.03
2018-01-27T11:23:54.947Z,28.50
2018-01-27T11:26:21.167Z,25.87
2018-01-27T11:28:47.366Z,29.37
2018-01-27T11:31:13.674Z,28.07
2018-01-27T11:33:39.836Z,25.80
2018-01-27T11:36:06.033Z,29.57
2018-01-27T11:38:32.451Z,28.20
2018-01-27T11:40:59.387Z,27.10
2018-01-27T11:43:25.601Z,30.90
2018-01-27T11:45:51.796Z,26.97
2018-01-27T11:48:18.955Z,24.77
2018-01-27T11:50:45.906Z,27.00
2018-01-27T11:53:12.882Z,24.57
2018-01-27T11:55:39.099Z,27.73
2018-01-27T11:58:05.282Z,27.17
2018-01-27T12:00:31.475Z,27.43
2018-01-27T12:02:57.752Z,29.27
2018-01-27T12:05:23.915Z,26.33
2018-01-27T12:07:50.116Z,25.33
2018-01-27T12:10:17.132Z,24.10
2018-01-27T12:12:43.531Z,26.07
2018-01-27T12:15:09.712Z,22.40
2018-01-27T12:17:35.939Z,20.17
2018-01-27T12:20:02.308Z,24.20
2018-01-27T12:22:28.563Z,22.37
2018-01-27T12:24:54.741Z,25.53
2018-01-27T12:27:21.277Z,29.07
2018-01-27T12:29:47.481Z,25.37
2018-01-27T12:32:13.648Z,26.53
2018-01-27T12:34:40.604Z,29.17
2018-01-27T12:37:06.807Z,24.70
2018-01-27T12:39:33.006Z,25.90
2018-01-27T12:41:59.270Z,27.23
2018-01-27T12:44:25.516Z,28.93
2018-01-27T12:46:52.392Z,26.50
2018-01-27T12:49:18.599Z,25.07
2018-01-27T12:51:44.927Z,26.47
2018-01-27T12:54:11.125Z,27.10
2018-01-27T12:56:37.379Z,31.40
2018-01-27T12:59:04.637Z,28.83
2018-01-27T13:01:30.818Z,27.00
2018-01-27T13:03:56.997Z,26.90
2018-01-27T13:06:23.585Z,29.60
2018-01-27T13:08:56.218Z,31.63
2018-01-27T13:11:22.565Z,29.40
2018-01-27T13:13:48.896Z,28.30
2018-01-27T13:16:15.096Z,27.87
2018-01-27T13:18:41.283Z,27.40
2018-01-27T13:21:07.508Z,30.60
2018-01-27T13:23:33.675Z,28.73
2018-01-27T13:25:59.890Z,25.67
2018-01-27T13:28:26.094Z,26.77
2018-01-27T13:30:52.391Z,27.67
2018-01-27T13:33:18.592Z,26.33
2018-01-27T13:35:45.753Z,27.00
2018-01-27T13:38:13.005Z,26.40
2018-01-27T13:40:39.951Z,27.93
2018-01-27T13:43:06.125Z,29.23
2018-01-27T13:45:32.455Z,26.43
2018-01-27T13:47:59.397Z,27.87
2018-01-27T13:50:25.917Z,23.87
2018-01-27T13:52:52.245Z,27.93
2018-01-27T13:55:18.609Z,28.00
2018-01-27T13:57:45.158Z,25.03
2018-01-27T14:00:11.754Z,26.10
2018-01-27T14:02:38.529Z,26.70
2018-01-27T14:05:05.040Z,23.23
2018-01-27T14:07:31.345Z,25.27
2018-01-27T14:09:57.848Z,22.47
2018-01-27T14:12:25.032Z,25.87
2018-01-27T14:14:51.413Z,24.97
2018-01-27T14:17:17.932Z,25.27
2018-01-27T14:19:44.504Z,26.83
2018-01-27T14:22:11.739Z,28.67
2018-01-27T14:24:38.006Z,25.47
2018-01-27T14:27:04.239Z,25.70
2018-01-27T14:29:31.226Z,25.37
2018-01-27T14:31:57.485Z,25.60
2018-01-27T14:34:23.772Z,31.13
2018-01-27T14:36:50.234Z,27.50
2018-01-27T14:39:17.251Z,27.03
2018-01-27T14:41:43.488Z,27.03
2018-01-27T14:44:10.784Z,29.90
2018-01-27T14:46:37.162Z,30.30
2018-01-27T14:49:03.435Z,29.50
2018-01-27T14:51:30.420Z,34.30
2018-01-27T14:53:56.848Z,31.07
2018-01-27T14:56:28.207Z,30.40
2018-01-27T14:58:54.618Z,31.80
2018-01-27T15:01:20.896Z,30.93
2018-01-27T15:06:21.711Z,30.80
2018-01-27T15:08:48.582Z,28.13
2018-01-27T15:11:15.128Z,28.17
2018-01-27T15:13:41.509Z,27.87
2018-01-27T15:16:08.748Z,27.20
2018-01-27T15:18:35.191Z,28.57
2018-01-27T15:21:02.829Z,23.50
2018-01-27T15:23:29.032Z,25.60
2018-01-27T15:25:55.971Z,25.70
2018-01-27T15:28:22.476Z,27.73
2018-01-27T15:30:48.717Z,27.77
2018-01-27T15:33:14.896Z,28.40
2018-01-27T15:35:41.279Z,28.60
2018-01-27T15:38:07.457Z,24.80
2018-01-27T15:40:33.680Z,26.50
2018-01-27T15:43:00.041Z,26.67
2018-01-27T15:45:26.272Z,24.10
2018-01-27T15:47:53.568Z,25.77
2018-01-27T15:50:20.765Z,31.10
2018-01-27T15:52:47.303Z,29.80
2018-01-27T15:55:14.682Z,29.07
2018-01-27T15:57:40.873Z,34.53
2018-01-27T16:00:07.132Z,29.93
2018-01-27T16:02:34.184Z,32.00
2018-01-27T16:05:00.399Z,30.73
2018-01-27T16:07:26.606Z,29.50
2018-01-27T16:09:53.483Z,29.50
2018-01-27T16:12:20.659Z,30.87
2018-01-27T16:14:46.872Z,36.40
2018-01-27T16:17:13.062Z,31.07
2018-01-27T16:19:39.618Z,36.93
2018-01-27T16:22:05.915Z,30.30
2018-01-27T16:24:32.112Z,30.30
2018-01-27T16:26:58.473Z,31.83
2018-01-27T16:29:25.787Z,30.57
2018-01-27T16:31:52.813Z,34.97
2018-01-27T16:34:19.005Z,36.67
2018-01-27T16:36:46.354Z,34.80
2018-01-27T16:39:12.571Z,48.83
2018-01-27T16:41:39.640Z,63.13
2018-01-27T16:44:05.893Z,34.23
2018-01-27T16:46:32.582Z,31.53
2018-01-27T16:49:00.912Z,67.03
2018-01-27T16:51:27.135Z,31.83
2018-01-27T16:53:53.377Z,24.33
2018-01-27T16:56:20.464Z,26.00
2018-01-27T16:58:46.687Z,34.03
2018-01-27T17:01:12.900Z,114.30
2018-01-27T17:03:39.307Z,27.20
2018-01-27T17:06:05.499Z,39.13
2018-01-27T17:08:32.451Z,25.43
2018-01-27T17:13:31.176Z,26.20
2018-01-27T17:15:57.347Z,30.40
2018-01-27T17:18:24.346Z,26.40
2018-01-27T17:20:50.603Z,87.67
2018-01-27T17:23:16.779Z,38.70
2018-01-27T17:25:43.714Z,52.27
2018-01-27T17:28:11.099Z,30.37
2018-01-27T17:30:38.108Z,41.00
2018-01-27T17:33:04.308Z,68.37
2018-01-27T17:35:32.222Z,43.30
2018-01-27T17:37:58.486Z,33.40
2018-01-27T17:40:24.656Z,69.17
2018-01-27T17:42:51.162Z,54.07
2018-01-27T17:45:17.380Z,21.60
2018-01-27T17:47:43.692Z,29.83
2018-01-27T17:50:09.906Z,27.03
2018-01-27T17:52:36.103Z,35.50
2018-01-27T17:55:09.939Z,56.87
2018-01-27T17:57:36.497Z,47.80
2018-01-27T18:00:02.800Z,32.57
2018-01-27T18:02:29.686Z,47.70
2018-01-27T18:04:55.913Z,22.80
2018-01-27T18:07:22.164Z,59.00
2018-01-27T18:09:48.520Z,25.33
2018-01-27T18:12:14.710Z,44.10
2018-01-27T18:14:41.641Z,25.00
2018-01-27T18:17:07.804Z,21.97
2018-01-27T18:19:34.943Z,24.93
2018-01-27T18:22:01.166Z,23.03
2018-01-27T18:24:27.461Z,25.63
2018-01-27T18:26:55.195Z,29.13
2018-01-27T18:29:22.358Z,28.17
2018-01-27T18:31:48.768Z,29.40
2018-01-27T18:34:14.974Z,30.77
2018-01-27T18:36:41.376Z,35.67
2018-01-27T18:39:07.667Z,35.60
2018-01-27T18:41:33.872Z,38.10
2018-01-27T18:44:00.756Z,34.17
2018-01-27T18:46:27.215Z,36.47
2018-01-27T18:48:53.488Z,37.63
2018-01-27T18:51:19.735Z,36.43
2018-01-27T18:53:46.116Z,42.93
2018-01-27T18:56:12.320Z,35.57
2018-01-27T18:58:39.517Z,36.87
2018-01-27T19:01:05.983Z,38.07
2018-01-27T19:03:32.165Z,38.83
2018-01-27T19:05:58.364Z,39.83
2018-01-27T19:08:24.740Z,41.70
2018-01-27T19:10:50.953Z,40.47
2018-01-27T19:13:17.132Z,35.93
2018-01-27T19:15:43.578Z,40.20
2018-01-27T19:18:09.808Z,40.23
2018-01-27T19:20:36.012Z,42.53
2018-01-27T19:23:02.290Z,45.17
2018-01-27T19:25:31.585Z,47.97
2018-01-27T19:27:58.927Z,46.10
2018-01-27T19:30:26.317Z,43.17
2018-01-27T19:35:25.697Z,46.10
2018-01-27T19:37:54.045Z,46.60
2018-01-27T19:40:21.987Z,48.80
2018-01-27T19:42:49.535Z,45.73
2018-01-27T19:45:16.801Z,48.00
2018-01-27T19:47:43.488Z,50.37
2018-01-27T19:50:10.644Z,50.73
2018-01-27T19:52:37.129Z,49.43
2018-01-27T19:55:04.082Z,50.40
2018-01-27T19:57:30.319Z,51.60
2018-01-27T19:59:56.988Z,51.53
2018-01-27T20:02:24.743Z,47.50
2018-01-27T20:04:51.716Z,50.20
2018-01-27T20:07:31.712Z,51.67
2018-01-27T20:09:57.963Z,50.03
2018-01-27T20:12:25.232Z,47.67
2018-01-27T20:14:52.269Z,50.23
2018-01-27T20:17:18.484Z,49.27
2018-01-27T20:19:46.136Z,51.10
2018-01-27T20:22:14.081Z,60.80
2018-01-27T20:24:42.340Z,52.67
2018-01-27T20:27:09.431Z,52.10
2018-01-27T20:29:36.659Z,49.50
2018-01-27T20:32:03.846Z,53.47
2018-01-27T20:34:30.044Z,50.70
2018-01-27T20:36:56.495Z,52.93
2018-01-27T20:39:23.216Z,53.00
2018-01-27T20:41:49.391Z,54.30
2018-01-27T20:44:17.675Z,56.80
2018-01-27T20:46:43.979Z,54.87
2018-01-27T20:49:10.386Z,56.27
2018-01-27T20:51:38.639Z,59.60
2018-01-27T20:54:04.876Z,52.60
2018-01-27T20:56:32.885Z,53.63
2018-01-27T20:59:04.452Z,52.17
2018-01-27T21:01:32.553Z,51.50
2018-01-27T21:07:02.513Z,55.13
2018-01-27T21:09:30.490Z,52.90
2018-01-27T21:11:57.430Z,47.90
2018-01-27T21:14:23.672Z,49.50
2018-01-27T21:16:50.311Z,50.50
2018-01-27T21:19:40.382Z,46.57
2018-01-27T21:22:07.741Z,48.90
2018-01-27T21:24:36.164Z,47.30
2018-01-27T21:27:06.446Z,53.33
2018-01-27T21:29:32.946Z,47.13
2018-01-27T21:31:59.736Z,46.63
2018-01-27T21:34:27.869Z,48.87
2018-01-27T21:36:54.334Z,45.40
2018-01-27T21:39:22.776Z,47.53
2018-01-27T21:41:49.817Z,40.80
2018-01-27T21:44:16.806Z,41.33
2018-01-27T21:46:45.956Z,44.67
2018-01-27T21:49:15.343Z,47.17
2018-01-27T21:51:42.414Z,43.87
2018-01-27T21:54:08.706Z,46.67
2018-01-27T21:56:36.328Z,43.33
2018-01-27T21:59:03.770Z,44.10
2018-01-27T22:01:32.066Z,42.70
2018-01-27T22:03:58.859Z,45.40
2018-01-27T22:06:25.351Z,43.50
2018-01-27T22:08:51.663Z,41.30
2018-01-27T22:11:20.004Z,44.00
2018-01-27T22:13:47.717Z,41.17
2018-01-27T22:16:15.198Z,46.20
2018-01-27T22:18:43.876Z,42.60
2018-01-27T22:21:11.867Z,40.00
2018-01-27T22:23:40.737Z,41.13
2018-01-27T22:26:07.058Z,35.87
2018-01-27T22:28:33.474Z,40.30
2018-01-27T22:30:59.754Z,39.80
2018-01-27T22:33:26.017Z,42.03
2018-01-27T22:35:53.576Z,33.60
2018-01-27T22:38:19.999Z,36.67
2018-01-27T22:40:47.100Z,35.30
2018-01-27T22:43:14.663Z,35.03
2018-01-27T22:45:41.055Z,36.03
2018-01-27T22:48:07.532Z,36.47
2018-01-27T22:50:35.005Z,38.80
2018-01-27T22:53:04.700Z,37.27
2018-01-27T22:55:31.438Z,37.40
2018-01-27T22:57:58.133Z,42.53
2018-01-27T23:00:24.425Z,41.17
2018-01-27T23:02:50.698Z,42.63
2018-01-27T23:05:17.880Z,40.93
2018-01-27T23:07:47.906Z,39.33
2018-01-27T23:10:14.497Z,39.90
2018-01-27T23:12:40.877Z,40.60
2018-01-27T23:15:07.131Z,40.53
2018-01-27T23:17:34.193Z,37.83
2018-01-27T23:20:01.465Z,39.97
2018-01-27T23:22:28.006Z,45.03
2018-01-27T23:24:54.541Z,41.93
2018-01-27T23:27:21.037Z,38.80
2018-01-27T23:29:47.383Z,35.80
2018-01-27T23:32:14.342Z,41.77
2018-01-27T23:34:40.600Z,43.30
2018-01-27T23:37:07.008Z,44.20
2018-01-27T23:39:33.253Z,40.93
2018-01-27T23:41:59.490Z,38.47
2018-01-27T23:44:25.924Z,39.00
2018-01-27T23:46:52.490Z,35.73
2018-01-27T23:49:19.318Z,37.90
2018-01-27T23:51:45.630Z,39.33
2018-01-27T23:54:11.915Z,42.73
2018-01-27T23:56:38.171Z,38.60
2018-01-27T23:59:04.400Z,41.10
